createdAt,value
2018-03-11T00:01:39.504Z,1.80
2018-03-11T00:03:42.819Z,1.80
2018-03-11T00:05:46.161Z,1.80
2018-03-11T00:07:49.513Z,1.60
2018-03-11T00:09:52.858Z,1.87
2018-03-11T00:11:56.194Z,1.77
2018-03-11T00:13:59.524Z,1.80
2018-03-11T00:16:02.864Z,1.87
2018-03-11T00:18:06.224Z,1.93
2018-03-11T00:20:09.562Z,2.10
2018-03-11T00:22:12.909Z,2.10
2018-03-11T00:24:16.238Z,1.63
2018-03-11T00:26:19.758Z,1.93
2018-03-11T00:28:23.079Z,1.60
2018-03-11T00:30:26.405Z,2.23
2018-03-11T00:32:29.767Z,2.00
2018-03-11T00:34:33.080Z,2.00
2018-03-11T00:36:36.227Z,2.03
2018-03-11T00:38:39.569Z,2.00
2018-03-11T00:40:42.896Z,2.07
2018-03-11T00:42:46.256Z,2.33
2018-03-11T00:44:49.576Z,2.10
2018-03-11T00:46:52.895Z,1.93
2018-03-11T00:48:56.310Z,2.33
2018-03-11T00:50:59.627Z,2.20
2018-03-11T00:53:02.972Z,2.37
2018-03-11T00:55:06.286Z,2.40
2018-03-11T00:57:09.891Z,2.67
2018-03-11T00:59:13.203Z,2.30
2018-03-11T01:01:16.522Z,2.40
2018-03-11T01:03:19.899Z,2.13
2018-03-11T01:05:23.221Z,2.27
2018-03-11T01:07:26.547Z,2.63
2018-03-11T01:09:29.864Z,2.70
2018-03-11T01:11:33.179Z,2.50
2018-03-11T01:13:36.513Z,2.13
2018-03-11T01:15:39.833Z,2.60
2018-03-11T01:17:43.194Z,2.33
2018-03-11T01:19:46.560Z,2.80
2018-03-11T01:21:49.883Z,2.60
2018-03-11T01:23:53.212Z,2.70
2018-03-11T01:25:56.530Z,2.70
2018-03-11T01:27:59.931Z,2.77
2018-03-11T01:30:03.246Z,2.70
2018-03-11T01:32:06.697Z,2.90
2018-03-11T01:34:10.021Z,2.70
2018-03-11T01:36:13.353Z,2.57
2018-03-11T01:38:16.708Z,2.53
2018-03-11T01:40:20.032Z,3.00
2018-03-11T01:42:23.347Z,2.63
2018-03-11T01:44:26.683Z,2.63
2018-03-11T01:46:30.003Z,2.50
2018-03-11T01:48:33.323Z,2.70
2018-03-11T01:50:36.643Z,2.80
2018-03-11T01:55:19.786Z,2.80
2018-03-11T01:57:23.363Z,3.37
2018-03-11T01:59:26.706Z,2.63
2018-03-11T02:01:30.028Z,2.90
2018-03-11T02:03:33.384Z,2.53
2018-03-11T02:05:36.705Z,2.50
2018-03-11T02:07:40.031Z,3.03
2018-03-11T02:09:43.362Z,2.77
2018-03-11T02:11:46.687Z,2.87
2018-03-11T02:13:50.047Z,2.67
2018-03-11T02:15:53.386Z,3.10
2018-03-11T02:17:56.776Z,2.77
2018-03-11T02:20:00.094Z,2.70
2018-03-11T02:22:03.427Z,2.53
2018-03-11T02:24:06.778Z,2.60
2018-03-11T02:26:10.112Z,2.90
2018-03-11T02:28:13.475Z,3.07
2018-03-11T02:30:16.785Z,2.50
2018-03-11T02:32:20.123Z,2.93
2018-03-11T02:34:23.463Z,2.87
2018-03-11T02:36:26.791Z,2.93
2018-03-11T02:38:30.135Z,2.83
2018-03-11T02:40:33.474Z,3.23
2018-03-11T02:42:36.803Z,2.60
2018-03-11T02:44:40.162Z,2.50
2018-03-11T02:46:43.568Z,3.10
2018-03-11T02:48:46.912Z,2.60
2018-03-11T02:50:50.260Z,2.57
2018-03-11T02:52:53.582Z,3.27
2018-03-11T02:54:56.905Z,2.80
2018-03-11T02:57:00.241Z,2.90
2018-03-11T02:59:03.601Z,2.87
2018-03-11T03:01:06.926Z,2.80
2018-03-11T03:03:10.273Z,3.17
2018-03-11T03:05:13.592Z,2.63
2018-03-11T03:07:17.860Z,2.50
2018-03-11T03:09:21.225Z,2.90
2018-03-11T03:11:24.559Z,2.63
2018-03-11T03:13:27.903Z,3.00
2018-03-11T03:15:31.230Z,2.70
2018-03-11T03:17:34.568Z,2.80
2018-03-11T03:19:37.940Z,2.50
2018-03-11T03:21:41.297Z,2.70
2018-03-11T03:23:44.666Z,2.53
2018-03-11T03:25:47.993Z,2.80
2018-03-11T03:27:51.327Z,2.57
2018-03-11T03:29:54.645Z,2.50
2018-03-11T03:31:57.975Z,2.23
2018-03-11T03:34:01.334Z,2.80
2018-03-11T03:36:04.658Z,2.40
2018-03-11T03:38:07.980Z,2.67
2018-03-11T03:40:11.307Z,2.60
2018-03-11T03:42:14.653Z,2.60
2018-03-11T03:44:18.020Z,3.00
2018-03-11T03:46:21.345Z,2.40
2018-03-11T03:48:24.669Z,2.43
2018-03-11T03:50:27.986Z,2.73
2018-03-11T03:52:31.317Z,2.50
2018-03-11T03:54:34.673Z,2.73
2018-03-11T03:56:38.002Z,2.70
2018-03-11T03:58:41.390Z,2.60
2018-03-11T04:00:44.719Z,2.63
2018-03-11T04:02:48.067Z,2.97
2018-03-11T04:04:51.432Z,2.20
2018-03-11T04:06:54.758Z,2.70
2018-03-11T04:08:58.114Z,2.40
2018-03-11T04:11:01.566Z,2.60
2018-03-11T04:13:04.905Z,2.80
2018-03-11T04:15:08.230Z,2.60
2018-03-11T04:17:11.561Z,2.50
2018-03-11T04:19:14.903Z,2.80
2018-03-11T04:21:18.227Z,2.47
2018-03-11T04:23:21.547Z,2.27
2018-03-11T04:25:24.875Z,2.60
2018-03-11T04:27:28.196Z,2.60
2018-03-11T04:29:31.552Z,2.50
2018-03-11T04:31:34.872Z,2.37
2018-03-11T04:33:38.202Z,2.70
2018-03-11T04:35:41.549Z,2.40
2018-03-11T04:37:44.876Z,2.57
2018-03-11T04:39:48.224Z,2.63
2018-03-11T04:41:51.587Z,2.57
2018-03-11T04:43:54.928Z,2.30
2018-03-11T04:45:58.254Z,2.60
2018-03-11T04:48:01.591Z,2.40
2018-03-11T04:50:04.927Z,2.70
2018-03-11T04:52:08.246Z,2.70
2018-03-11T04:54:11.586Z,2.60
2018-03-11T04:56:14.916Z,2.50
2018-03-11T04:58:18.235Z,2.53
2018-03-11T05:00:21.563Z,2.63
2018-03-11T05:02:24.885Z,2.60
2018-03-11T05:04:28.262Z,2.37
2018-03-11T05:06:31.578Z,2.47
2018-03-11T05:08:34.912Z,2.53
2018-03-11T05:10:38.239Z,2.23
2018-03-11T05:12:41.568Z,2.40
2018-03-11T05:14:44.939Z,2.30
2018-03-11T05:16:48.281Z,2.57
2018-03-11T05:18:51.599Z,2.30
2018-03-11T05:20:54.920Z,2.53
2018-03-11T05:22:58.246Z,2.40
2018-03-11T05:25:01.597Z,2.47
2018-03-11T05:27:04.918Z,2.60
2018-03-11T05:29:08.281Z,2.23
2018-03-11T05:31:11.600Z,2.97
2018-03-11T05:33:14.931Z,2.67
2018-03-11T05:35:18.264Z,2.50
2018-03-11T05:37:21.589Z,2.10
2018-03-11T05:39:24.948Z,2.30
2018-03-11T05:41:28.267Z,2.37
2018-03-11T05:43:31.604Z,2.73
2018-03-11T05:45:34.919Z,2.13
2018-03-11T05:47:38.249Z,2.20
2018-03-11T05:49:41.610Z,2.10
2018-03-11T05:51:44.939Z,2.60
2018-03-11T05:53:48.268Z,2.50
2018-03-11T05:55:51.579Z,2.40
2018-03-11T05:57:54.900Z,2.10
2018-03-11T05:59:58.269Z,1.93
2018-03-11T06:02:01.592Z,2.60
2018-03-11T06:04:04.442Z,2.20
2018-03-11T06:06:07.792Z,2.37
2018-03-11T06:08:11.188Z,2.00
2018-03-11T06:10:14.520Z,2.20
2018-03-11T06:12:17.851Z,2.30
2018-03-11T06:14:21.204Z,2.43
2018-03-11T06:16:24.716Z,2.53
2018-03-11T06:18:28.059Z,2.20
2018-03-11T06:20:31.392Z,2.33
2018-03-11T06:22:34.704Z,2.10
2018-03-11T06:24:38.695Z,2.43
2018-03-11T06:26:42.462Z,2.20
2018-03-11T06:28:45.840Z,2.07
2018-03-11T06:30:49.197Z,2.07
2018-03-11T06:32:52.729Z,2.20
2018-03-11T06:34:56.117Z,2.20
2018-03-11T06:36:59.445Z,2.37
2018-03-11T06:39:02.797Z,2.20
2018-03-11T06:41:06.118Z,2.00
2018-03-11T06:43:09.444Z,2.03
2018-03-11T06:45:12.774Z,2.10
2018-03-11T06:47:16.115Z,2.03
2018-03-11T06:49:19.463Z,2.20
2018-03-11T06:51:22.788Z,1.90
2018-03-11T06:53:26.109Z,2.10
2018-03-11T06:55:29.248Z,2.30
2018-03-11T06:57:32.569Z,2.30
2018-03-11T06:59:35.932Z,2.50
2018-03-11T07:01:39.277Z,2.13
2018-03-11T07:03:42.610Z,1.90
2018-03-11T07:05:45.938Z,2.37
2018-03-11T07:07:49.285Z,1.73
2018-03-11T07:09:52.679Z,1.87
2018-03-11T07:11:56.004Z,1.80
2018-03-11T07:13:59.361Z,2.30
2018-03-11T07:16:02.691Z,2.40
2018-03-11T07:18:06.034Z,2.10
2018-03-11T07:20:09.491Z,1.97
2018-03-11T07:22:12.936Z,2.20
2018-03-11T07:24:16.418Z,1.90
2018-03-11T07:26:19.996Z,1.80
2018-03-11T07:28:23.337Z,1.97
2018-03-11T07:30:26.673Z,1.97
2018-03-11T07:32:29.992Z,1.90
2018-03-11T07:34:33.310Z,2.00
2018-03-11T07:36:36.672Z,1.80
2018-03-11T07:38:40.022Z,1.83
2018-03-11T07:40:43.359Z,2.00
2018-03-11T07:42:46.697Z,1.57
2018-03-11T07:44:50.070Z,1.70
2018-03-11T07:46:53.541Z,2.03
2018-03-11T07:48:56.872Z,2.10
2018-03-11T07:51:00.225Z,1.93
2018-03-11T07:53:03.550Z,2.33
2018-03-11T07:55:06.922Z,1.77
2018-03-11T07:57:10.272Z,1.60
2018-03-11T07:59:13.591Z,1.90
2018-03-11T08:01:16.921Z,1.70
2018-03-11T08:03:20.244Z,1.83
2018-03-11T08:05:23.585Z,1.90
2018-03-11T08:07:26.947Z,1.83
2018-03-11T08:09:30.274Z,1.90
2018-03-11T08:11:33.612Z,1.67
2018-03-11T08:13:36.967Z,1.60
2018-03-11T08:15:40.297Z,1.70
2018-03-11T08:17:43.633Z,1.40
2018-03-11T08:19:46.955Z,2.10
2018-03-11T08:21:50.273Z,1.60
2018-03-11T08:23:53.800Z,1.90
2018-03-11T08:25:57.124Z,1.83
2018-03-11T08:28:00.533Z,1.90
2018-03-11T08:30:03.890Z,1.87
2018-03-11T08:32:07.249Z,1.80
2018-03-11T08:34:10.756Z,1.90
2018-03-11T08:36:14.075Z,1.90
2018-03-11T08:38:17.404Z,1.90
2018-03-11T08:40:21.031Z,1.70
2018-03-11T08:42:24.359Z,2.10
2018-03-11T08:44:28.082Z,1.77
2018-03-11T08:46:31.552Z,1.90
2018-03-11T08:48:35.019Z,1.53
2018-03-11T08:50:38.425Z,1.97
2018-03-11T08:52:41.772Z,2.13
2018-03-11T08:54:45.163Z,1.70
2018-03-11T08:56:48.490Z,1.80
2018-03-11T08:58:51.825Z,1.83
2018-03-11T09:00:55.149Z,1.83
2018-03-11T09:02:58.496Z,1.60
2018-03-11T09:05:01.960Z,1.90
2018-03-11T09:07:05.456Z,1.93
2018-03-11T09:09:08.778Z,1.90
2018-03-11T09:11:12.114Z,1.70
2018-03-11T09:13:15.455Z,1.70
2018-03-11T09:15:19.640Z,1.83
2018-03-11T09:17:22.964Z,1.80
2018-03-11T09:19:27.263Z,1.90
2018-03-11T09:21:30.609Z,1.93
2018-03-11T09:23:33.924Z,1.77
2018-03-11T09:25:37.276Z,1.70
2018-03-11T09:27:40.609Z,1.57
2018-03-11T09:29:44.427Z,1.80
2018-03-11T09:31:48.489Z,1.63
2018-03-11T09:33:51.852Z,1.93
2018-03-11T09:35:55.360Z,1.70
2018-03-11T09:37:58.836Z,1.90
2018-03-11T09:40:02.223Z,1.43
2018-03-11T09:42:05.560Z,1.70
2018-03-11T09:44:08.951Z,1.70
2018-03-11T09:46:12.936Z,1.47
2018-03-11T09:48:16.436Z,2.07
2018-03-11T09:50:20.355Z,1.77
2018-03-11T09:52:23.699Z,1.97
2018-03-11T09:54:27.073Z,1.77
2018-03-11T09:56:30.691Z,1.80
2018-03-11T09:58:34.237Z,1.77
2018-03-11T10:00:37.598Z,2.13
2018-03-11T10:02:41.098Z,1.67
2018-03-11T10:04:44.525Z,1.90
2018-03-11T10:06:49.520Z,2.10
2018-03-11T10:08:52.863Z,1.77
2018-03-11T10:10:56.205Z,1.53
2018-03-11T10:12:59.553Z,1.73
2018-03-11T10:15:02.981Z,1.73
2018-03-11T10:17:06.329Z,1.70
2018-03-11T10:19:09.684Z,1.33
2018-03-11T10:21:13.048Z,1.70
2018-03-11T10:23:16.411Z,1.80
2018-03-11T10:25:20.203Z,1.93
2018-03-11T10:27:23.576Z,1.70
2018-03-11T10:29:26.919Z,1.57
2018-03-11T10:31:30.375Z,1.67
2018-03-11T10:33:33.925Z,1.60
2018-03-11T10:35:38.015Z,1.43
2018-03-11T10:37:41.553Z,1.50
2018-03-11T10:39:44.881Z,1.70
2018-03-11T10:41:48.224Z,1.53
2018-03-11T10:43:51.736Z,1.70
2018-03-11T10:45:55.101Z,1.70
2018-03-11T10:47:58.456Z,1.70
2018-03-11T10:50:01.779Z,1.53
2018-03-11T10:52:05.172Z,1.50
2018-03-11T10:54:08.501Z,1.50
2018-03-11T10:56:11.818Z,1.60
2018-03-11T10:58:15.137Z,1.60
2018-03-11T11:00:18.284Z,1.50
2018-03-11T11:02:27.774Z,1.60
2018-03-11T11:07:04.489Z,1.50
2018-03-11T11:09:07.811Z,1.50
2018-03-11T11:11:11.132Z,1.40
2018-03-11T11:13:14.460Z,1.60
2018-03-11T11:15:17.819Z,1.70
2018-03-11T11:17:21.270Z,1.30
2018-03-11T11:19:24.641Z,1.50
2018-03-11T11:21:27.978Z,1.70
2018-03-11T11:23:31.301Z,1.57
2018-03-11T11:25:34.676Z,1.20
2018-03-11T11:27:38.189Z,1.63
2018-03-11T11:29:41.512Z,1.40
2018-03-11T11:31:44.837Z,1.40
2018-03-11T11:33:48.163Z,1.53
2018-03-11T11:35:51.484Z,1.47
2018-03-11T11:37:54.811Z,1.50
2018-03-11T11:39:58.168Z,1.40
2018-03-11T11:42:01.487Z,1.50
2018-03-11T11:44:04.814Z,1.40
2018-03-11T11:46:08.179Z,1.40
2018-03-11T11:48:11.525Z,1.43
2018-03-11T11:50:14.845Z,1.73
2018-03-11T11:52:18.192Z,1.50
2018-03-11T11:54:21.577Z,1.63
2018-03-11T11:56:24.902Z,1.60
2018-03-11T11:58:28.269Z,1.37
2018-03-11T12:00:31.612Z,1.53
2018-03-11T12:02:34.945Z,1.33
2018-03-11T12:04:38.275Z,1.37
2018-03-11T12:06:41.602Z,1.33
2018-03-11T12:08:44.946Z,1.30
2018-03-11T12:10:48.072Z,1.20
2018-03-11T12:12:51.515Z,1.57
2018-03-11T12:14:55.033Z,1.60
2018-03-11T12:16:58.373Z,1.23
2018-03-11T12:19:01.807Z,1.30
2018-03-11T12:21:05.405Z,1.30
2018-03-11T12:23:08.782Z,1.30
2018-03-11T12:25:12.351Z,1.37
2018-03-11T12:27:15.691Z,1.50
2018-03-11T12:29:19.013Z,1.20
2018-03-11T12:31:22.456Z,1.50
2018-03-11T12:33:25.882Z,1.50
2018-03-11T12:35:29.244Z,1.50
2018-03-11T12:37:32.608Z,1.33
2018-03-11T12:39:36.740Z,1.60
2018-03-11T12:41:40.143Z,1.33
2018-03-11T12:43:43.522Z,1.30
2018-03-11T12:45:46.860Z,1.27
2018-03-11T12:47:50.184Z,1.30
2018-03-11T12:49:53.514Z,1.30
2018-03-11T12:51:56.841Z,1.57
2018-03-11T12:54:00.167Z,1.07
2018-03-11T12:56:03.524Z,1.30
2018-03-11T12:58:06.949Z,1.50
2018-03-11T13:00:10.290Z,1.47
2018-03-11T13:02:13.631Z,1.30
2018-03-11T13:04:16.951Z,1.47
2018-03-11T13:06:20.284Z,1.00
2018-03-11T13:08:23.678Z,1.20
2018-03-11T13:10:27.012Z,1.50
2018-03-11T13:12:30.388Z,1.20
2018-03-11T13:14:33.710Z,1.37
2018-03-11T13:16:37.047Z,1.20
2018-03-11T13:18:40.377Z,1.30
2018-03-11T13:20:55.229Z,1.10
2018-03-11T13:22:58.696Z,1.20
2018-03-11T13:25:02.028Z,1.20
2018-03-11T13:27:05.363Z,1.20
2018-03-11T13:29:08.727Z,1.30
2018-03-11T13:31:12.058Z,1.10
2018-03-11T13:33:26.587Z,1.10
2018-03-11T13:35:29.943Z,0.87
2018-03-11T13:37:33.409Z,1.37
2018-03-11T13:39:48.059Z,1.20
2018-03-11T13:41:51.456Z,1.00
2018-03-11T13:43:54.911Z,1.30
2018-03-11T13:46:09.559Z,1.40
2018-03-11T13:48:12.883Z,1.30
2018-03-11T13:50:16.218Z,1.37
2018-03-11T13:52:30.743Z,1.30
2018-03-11T13:54:34.089Z,1.00
2018-03-11T13:56:37.427Z,1.07
2018-03-11T13:58:45.289Z,1.13
2018-03-11T14:00:48.805Z,1.10
2018-03-11T14:02:53.195Z,1.63
2018-03-11T14:04:56.534Z,1.13
2018-03-11T14:06:59.863Z,1.20
2018-03-11T14:09:03.219Z,1.40
2018-03-11T14:11:06.547Z,1.20
2018-03-11T14:13:09.970Z,1.27
2018-03-11T14:15:13.294Z,1.10
2018-03-11T14:17:16.644Z,1.30
2018-03-11T14:19:19.977Z,1.37
2018-03-11T14:21:23.302Z,1.20
2018-03-11T14:23:26.715Z,1.20
2018-03-11T14:25:30.097Z,1.00
2018-03-11T14:27:34.058Z,1.30
2018-03-11T14:29:37.407Z,1.07
2018-03-11T14:31:40.747Z,1.00
2018-03-11T14:33:44.099Z,1.27
2018-03-11T14:35:47.431Z,1.40
2018-03-11T14:37:50.775Z,1.00
2018-03-11T14:39:54.883Z,1.37
2018-03-11T14:41:58.286Z,1.30
2018-03-11T14:44:01.624Z,1.10
2018-03-11T14:46:05.626Z,1.30
2018-03-11T14:48:08.968Z,1.00
2018-03-11T14:50:12.375Z,1.10
2018-03-11T14:52:16.029Z,1.30
2018-03-11T14:54:19.453Z,1.23
2018-03-11T14:56:22.714Z,0.90
2018-03-11T14:58:26.212Z,0.97
2018-03-11T15:00:29.695Z,1.20
2018-03-11T15:02:33.620Z,1.00
2018-03-11T15:04:37.029Z,1.00
2018-03-11T15:06:40.400Z,1.00
2018-03-11T15:08:44.164Z,1.10
2018-03-11T15:10:47.619Z,0.90
2018-03-11T15:12:50.955Z,1.30
2018-03-11T15:14:54.685Z,1.00
2018-03-11T15:16:58.118Z,1.13
2018-03-11T15:19:01.464Z,1.23
2018-03-11T15:21:04.819Z,1.10
2018-03-11T15:23:08.301Z,1.30
2018-03-11T15:25:11.638Z,1.20
2018-03-11T15:27:15.019Z,1.00
2018-03-11T15:29:18.439Z,1.03
2018-03-11T15:31:21.802Z,1.10
2018-03-11T15:33:25.259Z,1.13
2018-03-11T15:35:29.874Z,1.10
2018-03-11T15:37:33.913Z,1.17
2018-03-11T15:39:37.529Z,1.00
2018-03-11T15:41:41.070Z,1.13
2018-03-11T15:43:44.818Z,1.00
2018-03-11T15:45:48.816Z,1.10
2018-03-11T15:47:52.276Z,1.17
2018-03-11T15:49:55.660Z,1.30
2018-03-11T15:51:59.079Z,1.00
2018-03-11T15:54:02.859Z,1.00
2018-03-11T15:56:06.384Z,1.00
2018-03-11T15:58:09.819Z,1.07
2018-03-11T16:00:13.300Z,1.10
2018-03-11T16:02:16.781Z,1.10
2018-03-11T16:04:20.276Z,1.10
2018-03-11T16:06:23.870Z,1.00
2018-03-11T16:08:27.378Z,1.07
2018-03-11T16:10:30.855Z,1.10
2018-03-11T16:12:34.185Z,1.00
2018-03-11T16:14:37.557Z,1.10
2018-03-11T16:16:40.994Z,1.00
2018-03-11T16:18:44.433Z,1.37
2018-03-11T16:20:47.920Z,1.10
2018-03-11T16:22:51.262Z,0.83
2018-03-11T16:24:54.662Z,1.10
2018-03-11T16:26:58.945Z,1.10
2018-03-11T16:29:02.710Z,1.10
2018-03-11T16:31:06.132Z,1.10
2018-03-11T16:33:09.533Z,0.90
2018-03-11T16:35:12.922Z,1.10
2018-03-11T16:37:16.514Z,1.07
2018-03-11T16:39:19.904Z,1.03
2018-03-11T16:41:23.487Z,0.93
2018-03-11T16:43:26.811Z,1.33
2018-03-11T16:45:30.470Z,1.10
2018-03-11T16:47:34.156Z,1.20
2018-03-11T16:49:37.622Z,1.17
2018-03-11T16:51:41.059Z,0.90
2018-03-11T16:53:44.412Z,1.00
2018-03-11T16:55:48.395Z,0.90
2018-03-11T16:57:53.347Z,1.10
2018-03-11T16:59:56.681Z,1.10
2018-03-11T17:02:00.018Z,0.90
2018-03-11T17:04:03.371Z,1.03
2018-03-11T17:06:06.824Z,1.10
2018-03-11T17:08:10.216Z,0.90
2018-03-11T17:10:13.532Z,1.00
2018-03-11T17:12:17.097Z,1.20
2018-03-11T17:14:20.816Z,0.80
2018-03-11T17:16:24.193Z,1.10
2018-03-11T17:18:27.584Z,0.80
2018-03-11T17:20:32.043Z,0.90
2018-03-11T17:22:35.723Z,1.00
2018-03-11T17:24:39.489Z,0.80
2018-03-11T17:26:45.090Z,0.87
2018-03-11T17:28:50.271Z,0.90
2018-03-11T17:30:53.935Z,0.93
2018-03-11T17:32:57.316Z,1.00
2018-03-11T17:35:00.958Z,1.10
2018-03-11T17:37:04.530Z,1.07
2018-03-11T17:39:08.032Z,1.00
2018-03-11T17:41:12.402Z,0.90
2018-03-11T17:43:16.741Z,0.90
2018-03-11T17:45:20.771Z,0.90
2018-03-11T17:47:25.061Z,1.00
2018-03-11T17:49:28.946Z,1.03
2018-03-11T17:51:32.893Z,1.10
2018-03-11T17:53:36.550Z,0.90
2018-03-11T17:55:40.073Z,1.00
2018-03-11T17:57:43.434Z,1.17
2018-03-11T17:59:47.920Z,1.00
2018-03-11T18:01:51.471Z,1.00
2018-03-11T18:03:55.320Z,1.17
2018-03-11T18:05:59.044Z,0.90
2018-03-11T18:08:02.461Z,0.70
2018-03-11T18:10:06.045Z,0.97
2018-03-11T18:12:11.089Z,1.20
2018-03-11T18:14:14.601Z,1.20
2018-03-11T18:16:18.199Z,1.30
2018-03-11T18:18:21.648Z,1.10
2018-03-11T18:20:25.229Z,1.20
2018-03-11T18:22:28.814Z,1.07
2018-03-11T18:24:32.507Z,1.40
2018-03-11T18:26:36.315Z,0.90
2018-03-11T18:28:40.390Z,0.90
2018-03-11T18:30:45.858Z,1.10
2018-03-11T18:32:49.375Z,1.00
2018-03-11T18:34:52.932Z,1.30
2018-03-11T18:36:57.289Z,0.87
2018-03-11T18:39:00.764Z,0.80
2018-03-11T18:41:05.996Z,1.10
2018-03-11T18:43:09.465Z,1.10
2018-03-11T18:45:12.919Z,0.90
2018-03-11T18:47:17.124Z,1.00
2018-03-11T18:49:20.496Z,0.90
2018-03-11T18:51:23.886Z,0.80
2018-03-11T18:53:27.493Z,1.10
2018-03-11T18:55:30.874Z,1.00
2018-03-11T18:57:34.416Z,1.00
2018-03-11T18:59:38.071Z,1.00
2018-03-11T19:01:41.607Z,1.30
2018-03-11T19:03:45.276Z,1.10
2018-03-11T19:05:49.035Z,0.97
2018-03-11T19:07:52.731Z,1.03
2018-03-11T19:09:56.295Z,0.93
2018-03-11T19:12:00.534Z,1.17
2018-03-11T19:14:04.613Z,1.03
2018-03-11T19:16:09.359Z,1.10
2018-03-11T19:18:13.200Z,1.40
2018-03-11T19:20:16.896Z,0.80
2018-03-11T19:22:20.415Z,1.10
2018-03-11T19:24:23.991Z,1.20
2018-03-11T19:26:27.422Z,1.13
2018-03-11T19:28:30.946Z,1.03
2018-03-11T19:30:34.494Z,1.10
2018-03-11T19:32:37.965Z,1.30
2018-03-11T19:34:41.370Z,1.03
2018-03-11T19:36:44.987Z,1.17
2018-03-11T19:38:48.472Z,0.90
2018-03-11T19:40:51.998Z,1.30
2018-03-11T19:42:55.556Z,1.13
2018-03-11T19:45:03.780Z,0.90
2018-03-11T19:47:07.537Z,1.07
2018-03-11T19:49:11.007Z,0.90
2018-03-11T19:51:14.662Z,1.10
2018-03-11T19:53:18.039Z,1.20
2018-03-11T19:55:22.324Z,1.17
2018-03-11T19:57:25.661Z,0.90
2018-03-11T19:59:29.051Z,1.00
2018-03-11T20:01:33.264Z,1.00
2018-03-11T20:03:37.000Z,1.17
2018-03-11T20:05:40.363Z,1.10
2018-03-11T20:07:43.935Z,1.10
2018-03-11T20:09:47.355Z,1.20
2018-03-11T20:11:51.642Z,0.80
2018-03-11T20:13:55.168Z,0.93
2018-03-11T20:15:58.855Z,1.03
2018-03-11T20:18:02.227Z,1.10
2018-03-11T20:20:05.571Z,1.10
2018-03-11T20:22:09.242Z,1.10
2018-03-11T20:24:12.563Z,1.10
2018-03-11T20:26:15.987Z,1.10
2018-03-11T20:28:19.336Z,0.97
2018-03-11T20:30:22.702Z,1.37
2018-03-11T20:32:27.521Z,1.50
2018-03-11T20:34:31.356Z,1.27
2018-03-11T20:36:35.814Z,1.30
2018-03-11T20:38:39.244Z,1.30
2018-03-11T20:40:42.676Z,1.27
2018-03-11T20:42:47.555Z,1.20
2018-03-11T20:44:51.131Z,1.20
2018-03-11T20:46:54.502Z,1.10
2018-03-11T20:48:57.908Z,1.20
2018-03-11T20:51:01.879Z,1.40
2018-03-11T20:53:05.383Z,1.20
2018-03-11T20:55:09.464Z,0.90
2018-03-11T20:57:12.983Z,1.20
2018-03-11T20:59:16.351Z,1.10
2018-03-11T21:01:19.687Z,1.13
2018-03-11T21:03:23.040Z,1.20
2018-03-11T21:05:26.416Z,1.30
2018-03-11T21:07:29.752Z,1.50
2018-03-11T21:09:33.533Z,1.40
2018-03-11T21:11:36.936Z,1.30
2018-03-11T21:13:40.267Z,1.23
2018-03-11T21:15:43.700Z,1.40
2018-03-11T21:17:47.028Z,1.27
2018-03-11T21:19:50.785Z,1.60
2018-03-11T21:21:54.448Z,1.40
2018-03-11T21:23:57.776Z,1.43
2018-03-11T21:26:01.100Z,1.30
2018-03-11T21:28:04.417Z,1.40
2018-03-11T21:30:07.999Z,1.40
2018-03-11T21:32:11.350Z,1.40
2018-03-11T21:34:15.202Z,1.50
2018-03-11T21:36:18.724Z,1.77
2018-03-11T21:38:22.093Z,1.93
2018-03-11T21:40:26.153Z,1.30
2018-03-11T21:42:29.487Z,1.50
2018-03-11T21:44:32.877Z,1.80
2018-03-11T21:46:36.403Z,1.30
2018-03-11T21:48:39.771Z,1.40
2018-03-11T21:50:43.135Z,1.43
2018-03-11T21:52:46.460Z,1.70
2018-03-11T21:54:49.822Z,1.40
2018-03-11T21:56:53.148Z,1.70
2018-03-11T21:58:56.474Z,1.60
2018-03-11T22:00:59.819Z,1.40
2018-03-11T22:03:03.136Z,1.53
2018-03-11T22:05:06.487Z,1.40
2018-03-11T22:07:09.802Z,1.67
2018-03-11T22:09:13.131Z,1.90
2018-03-11T22:11:16.454Z,1.60
2018-03-11T22:13:19.780Z,1.77
2018-03-11T22:15:23.101Z,1.30
2018-03-11T22:17:26.426Z,1.57
2018-03-11T22:19:29.898Z,1.53
2018-03-11T22:21:33.243Z,1.80
2018-03-11T22:23:36.561Z,1.80
2018-03-11T22:25:39.884Z,1.50
2018-03-11T22:27:43.205Z,1.30
2018-03-11T22:29:46.567Z,1.40
2018-03-11T22:31:49.892Z,1.40
2018-03-11T22:33:53.230Z,1.60
2018-03-11T22:35:56.543Z,1.80
2018-03-11T22:37:59.864Z,1.53
2018-03-11T22:40:03.216Z,1.50
2018-03-11T22:42:06.554Z,1.80
2018-03-11T22:44:09.882Z,1.53
2018-03-11T22:46:13.205Z,2.00
2018-03-11T22:48:16.536Z,1.90
2018-03-11T22:50:19.875Z,1.60
2018-03-11T22:52:23.196Z,1.93
2018-03-11T22:54:26.520Z,1.70
2018-03-11T22:56:29.828Z,1.80
2018-03-11T22:58:33.214Z,1.77
2018-03-11T23:00:36.579Z,1.73
2018-03-11T23:02:39.919Z,1.70
2018-03-11T23:04:43.260Z,1.60
2018-03-11T23:06:46.603Z,1.90
2018-03-11T23:08:49.948Z,1.70
2018-03-11T23:10:53.269Z,1.83
2018-03-11T23:12:56.592Z,1.70
2018-03-11T23:14:59.962Z,1.70
2018-03-11T23:17:03.300Z,1.90
2018-03-11T23:19:18.000Z,1.90
2018-03-11T23:21:21.346Z,1.80
2018-03-11T23:23:25.478Z,1.80
2018-03-11T23:25:28.976Z,1.70
2018-03-11T23:27:32.292Z,1.93
2018-03-11T23:29:35.642Z,1.73
2018-03-11T23:31:38.979Z,1.97
2018-03-11T23:33:42.543Z,1.70
2018-03-11T23:35:45.966Z,1.60
2018-03-11T23:37:49.320Z,1.70
2018-03-11T23:39:52.645Z,2.23
2018-03-11T23:41:56.124Z,2.00
2018-03-11T23:43:59.535Z,1.90
2018-03-11T23:46:02.859Z,2.00
2018-03-11T23:48:06.285Z,1.77
2018-03-11T23:50:09.675Z,1.87
2018-03-11T23:52:13.000Z,2.20
2018-03-11T23:54:16.465Z,2.40
2018-03-11T23:56:19.922Z,1.80
2018-03-11T23:58:23.273Z,1.70
